sensor_id;sensor_type;location;lat;lon;timestamp;temperature;humidity
39255;DHT22;24957;51.386;-2.352;2022-09-03T00:01:34;18.00;99.90
39255;DHT22;24957;51.386;-2.352;2022-09-03T00:04:07;18.00;99.90
39255;DHT22;24957;51.386;-2.352;2022-09-03T00:06:38;17.80;99.90
39255;DHT22;24957;51.386;-2.352;2022-09-03T00:11:47;17.70;99.90
39255;DHT22;24957;51.386;-2.352;2022-09-03T00:14:16;17.50;99.90
39255;DHT22;24957;51.386;-2.352;2022-09-03T00:16:45;17.40;99.90
39255;DHT22;24957;51.386;-2.352;2022-09-03T00:19:15;17.50;99.90
39255;DHT22;24957;51.386;-2.352;2022-09-03T00:21:46;17.40;99.90
39255;DHT22;24957;51.386;-2.352;2022-09-03T00:24:14;17.50;99.90
39255;DHT22;24957;51.386;-2.352;2022-09-03T00:26:46;17.30;99.90
39255;DHT22;24957;51.386;-2.352;2022-09-03T00:29:20;17.30;99.90
39255;DHT22;24957;51.386;-2.352;2022-09-03T00:31:48;17.10;99.90
39255;DHT22;24957;51.386;-2.352;2022-09-03T00:36:42;17.00;99.90
39255;DHT22;24957;51.386;-2.352;2022-09-03T00:39:12;17.00;99.90
39255;DHT22;24957;51.386;-2.352;2022-09-03T00:41:42;17.00;99.90
39255;DHT22;24957;51.386;-2.352;2022-09-03T00:44:13;16.90;99.90
39255;DHT22;24957;51.386;-2.352;2022-09-03T00:46:52;16.80;99.90
39255;DHT22;24957;51.386;-2.352;2022-09-03T00:52:17;16.80;99.90
39255;DHT22;24957;51.386;-2.352;2022-09-03T01:10:14;16.50;99.90
39255;DHT22;24957;51.386;-2.352;2022-09-03T01:15:28;16.40;99.90
39255;DHT22;24957;51.386;-2.352;2022-09-03T01:18:06;16.30;99.90
39255;DHT22;24957;51.386;-2.352;2022-09-03T01:23:26;16.20;99.90
39255;DHT22;24957;51.386;-2.352;2022-09-03T01:33:46;16.10;99.90
39255;DHT22;24957;51.386;-2.352;2022-09-03T01:38:46;16.00;99.90
39255;DHT22;24957;51.386;-2.352;2022-09-03T01:46:59;15.90;99.90
39255;DHT22;24957;51.386;-2.352;2022-09-03T01:49:32;15.90;99.90
39255;DHT22;24957;51.386;-2.352;2022-09-03T01:52:10;15.70;99.90
39255;DHT22;24957;51.386;-2.352;2022-09-03T01:54:40;15.70;99.90
39255;DHT22;24957;51.386;-2.352;2022-09-03T02:04:25;15.50;99.90
39255;DHT22;24957;51.386;-2.352;2022-09-03T02:06:51;15.50;99.90
39255;DHT22;24957;51.386;-2.352;2022-09-03T02:09:17;15.40;99.90
39255;DHT22;24957;51.386;-2.352;2022-09-03T02:11:43;15.40;99.90
39255;DHT22;24957;51.386;-2.352;2022-09-03T02:14:11;15.30;99.90
39255;DHT22;24957;51.386;-2.352;2022-09-03T02:16:37;15.30;99.90
39255;DHT22;24957;51.386;-2.352;2022-09-03T02:19:07;15.40;99.90
39255;DHT22;24957;51.386;-2.352;2022-09-03T02:21:37;15.40;99.90
39255;DHT22;24957;51.386;-2.352;2022-09-03T02:24:03;15.30;99.90
39255;DHT22;24957;51.386;-2.352;2022-09-03T02:26:29;15.30;99.90
39255;DHT22;24957;51.386;-2.352;2022-09-03T02:28:55;15.30;99.90
39255;DHT22;24957;51.386;-2.352;2022-09-03T02:31:21;15.20;99.90
39255;DHT22;24957;51.386;-2.352;2022-09-03T02:33:47;15.30;99.90
39255;DHT22;24957;51.386;-2.352;2022-09-03T02:36:14;15.20;99.90
39255;DHT22;24957;51.386;-2.352;2022-09-03T02:38:41;15.20;99.90
39255;DHT22;24957;51.386;-2.352;2022-09-03T02:41:07;15.20;99.90
39255;DHT22;24957;51.386;-2.352;2022-09-03T02:43:36;15.20;99.90
39255;DHT22;24957;51.386;-2.352;2022-09-03T02:46:03;15.10;99.90
39255;DHT22;24957;51.386;-2.352;2022-09-03T02:48:29;15.10;99.90
39255;DHT22;24957;51.386;-2.352;2022-09-03T02:50:54;15.20;99.90
39255;DHT22;24957;51.386;-2.352;2022-09-03T02:53:20;15.30;99.90
39255;DHT22;24957;51.386;-2.352;2022-09-03T02:55:45;15.30;99.90
39255;DHT22;24957;51.386;-2.352;2022-09-03T02:58:11;15.50;99.90
39255;DHT22;24957;51.386;-2.352;2022-09-03T03:00:39;15.50;99.90
39255;DHT22;24957;51.386;-2.352;2022-09-03T03:03:05;15.40;99.90
39255;DHT22;24957;51.386;-2.352;2022-09-03T03:06:04;15.50;99.90
39255;DHT22;24957;51.386;-2.352;2022-09-03T03:08:23;15.50;99.90
39255;DHT22;24957;51.386;-2.352;2022-09-03T03:10:53;15.50;99.90
39255;DHT22;24957;51.386;-2.352;2022-09-03T03:13:21;15.60;99.90
39255;DHT22;24957;51.386;-2.352;2022-09-03T03:15:47;15.60;99.90
39255;DHT22;24957;51.386;-2.352;2022-09-03T03:18:13;15.70;99.90
39255;DHT22;24957;51.386;-2.352;2022-09-03T03:20:39;15.80;99.90
39255;DHT22;24957;51.386;-2.352;2022-09-03T03:23:05;15.80;99.90
39255;DHT22;24957;51.386;-2.352;2022-09-03T03:25:31;15.70;99.90
39255;DHT22;24957;51.386;-2.352;2022-09-03T03:27:57;15.70;99.90
39255;DHT22;24957;51.386;-2.352;2022-09-03T03:30:22;15.70;99.90
39255;DHT22;24957;51.386;-2.352;2022-09-03T03:32:48;15.50;99.90
39255;DHT22;24957;51.386;-2.352;2022-09-03T03:35:14;15.50;99.90
39255;DHT22;24957;51.386;-2.352;2022-09-03T03:37:39;15.50;99.90
39255;DHT22;24957;51.386;-2.352;2022-09-03T03:40:05;15.40;99.90
39255;DHT22;24957;51.386;-2.352;2022-09-03T03:42:32;15.40;99.90
39255;DHT22;24957;51.386;-2.352;2022-09-03T03:44:58;15.40;99.90
39255;DHT22;24957;51.386;-2.352;2022-09-03T03:47:24;15.50;99.90
39255;DHT22;24957;51.386;-2.352;2022-09-03T03:49:49;15.50;99.90
39255;DHT22;24957;51.386;-2.352;2022-09-03T03:52:15;15.50;99.90
39255;DHT22;24957;51.386;-2.352;2022-09-03T03:54:40;15.60;99.90
39255;DHT22;24957;51.386;-2.352;2022-09-03T03:57:06;15.60;99.90
39255;DHT22;24957;51.386;-2.352;2022-09-03T03:59:32;15.60;99.90
39255;DHT22;24957;51.386;-2.352;2022-09-03T04:01:57;15.70;99.90
39255;DHT22;24957;51.386;-2.352;2022-09-03T04:04:23;15.80;99.90
39255;DHT22;24957;51.386;-2.352;2022-09-03T04:06:48;15.80;99.90
39255;DHT22;24957;51.386;-2.352;2022-09-03T04:09:14;15.80;99.90
39255;DHT22;24957;51.386;-2.352;2022-09-03T04:11:39;15.70;99.90
39255;DHT22;24957;51.386;-2.352;2022-09-03T04:14:05;15.70;99.90
39255;DHT22;24957;51.386;-2.352;2022-09-03T04:16:30;15.80;99.90
39255;DHT22;24957;51.386;-2.352;2022-09-03T04:18:57;15.80;99.90
39255;DHT22;24957;51.386;-2.352;2022-09-03T04:21:23;15.90;99.90
39255;DHT22;24957;51.386;-2.352;2022-09-03T04:23:49;16.00;99.90
39255;DHT22;24957;51.386;-2.352;2022-09-03T04:26:16;16.10;99.90
39255;DHT22;24957;51.386;-2.352;2022-09-03T04:28:42;16.20;99.90
39255;DHT22;24957;51.386;-2.352;2022-09-03T04:31:09;16.10;99.90
39255;DHT22;24957;51.386;-2.352;2022-09-03T04:33:36;16.10;99.90
39255;DHT22;24957;51.386;-2.352;2022-09-03T04:36:08;16.10;99.90
39255;DHT22;24957;51.386;-2.352;2022-09-03T04:38:35;16.20;99.90
39255;DHT22;24957;51.386;-2.352;2022-09-03T04:41:00;16.20;99.90
39255;DHT22;24957;51.386;-2.352;2022-09-03T04:43:26;16.40;99.90
39255;DHT22;24957;51.386;-2.352;2022-09-03T04:45:56;16.40;99.90
39255;DHT22;24957;51.386;-2.352;2022-09-03T04:48:22;16.40;99.90
39255;DHT22;24957;51.386;-2.352;2022-09-03T04:50:48;16.40;99.90
39255;DHT22;24957;51.386;-2.352;2022-09-03T04:53:13;16.40;99.90
39255;DHT22;24957;51.386;-2.352;2022-09-03T04:55:39;16.40;99.90
39255;DHT22;24957;51.386;-2.352;2022-09-03T04:58:05;16.50;99.90
39255;DHT22;24957;51.386;-2.352;2022-09-03T05:00:34;16.50;99.90
39255;DHT22;24957;51.386;-2.352;2022-09-03T05:03:00;16.50;99.90
39255;DHT22;24957;51.386;-2.352;2022-09-03T05:05:26;16.50;99.90
39255;DHT22;24957;51.386;-2.352;2022-09-03T05:07:51;16.60;99.90
39255;DHT22;24957;51.386;-2.352;2022-09-03T05:10:17;16.70;99.90
39255;DHT22;24957;51.386;-2.352;2022-09-03T05:12:47;16.90;99.90
39255;DHT22;24957;51.386;-2.352;2022-09-03T05:15:14;17.20;99.90
39255;DHT22;24957;51.386;-2.352;2022-09-03T05:17:39;17.40;99.90
39255;DHT22;24957;51.386;-2.352;2022-09-03T05:20:05;17.60;99.90
39255;DHT22;24957;51.386;-2.352;2022-09-03T05:22:34;17.60;99.90
39255;DHT22;24957;51.386;-2.352;2022-09-03T05:24:59;17.70;99.90
39255;DHT22;24957;51.386;-2.352;2022-09-03T05:27:25;17.80;99.90
39255;DHT22;24957;51.386;-2.352;2022-09-03T05:29:50;17.90;99.90
39255;DHT22;24957;51.386;-2.352;2022-09-03T05:32:16;17.90;99.90
39255;DHT22;24957;51.386;-2.352;2022-09-03T05:34:42;17.90;99.90
39255;DHT22;24957;51.386;-2.352;2022-09-03T05:37:08;17.90;99.90
39255;DHT22;24957;51.386;-2.352;2022-09-03T05:39:33;17.90;99.90
39255;DHT22;24957;51.386;-2.352;2022-09-03T05:41:59;17.80;99.90
39255;DHT22;24957;51.386;-2.352;2022-09-03T05:44:24;17.90;99.90
39255;DHT22;24957;51.386;-2.352;2022-09-03T05:46:50;17.70;99.90
39255;DHT22;24957;51.386;-2.352;2022-09-03T05:49:16;17.50;99.90
39255;DHT22;24957;51.386;-2.352;2022-09-03T05:51:41;17.50;99.90
39255;DHT22;24957;51.386;-2.352;2022-09-03T05:54:08;17.40;99.90
39255;DHT22;24957;51.386;-2.352;2022-09-03T05:56:34;17.10;99.90
39255;DHT22;24957;51.386;-2.352;2022-09-03T05:59:01;17.00;99.90
39255;DHT22;24957;51.386;-2.352;2022-09-03T06:01:30;17.00;99.90
39255;DHT22;24957;51.386;-2.352;2022-09-03T06:03:57;17.10;99.90
39255;DHT22;24957;51.386;-2.352;2022-09-03T06:06:24;17.20;99.90
39255;DHT22;24957;51.386;-2.352;2022-09-03T06:08:50;17.20;99.90
39255;DHT22;24957;51.386;-2.352;2022-09-03T06:11:16;17.20;99.90
39255;DHT22;24957;51.386;-2.352;2022-09-03T06:13:41;17.30;99.90
39255;DHT22;24957;51.386;-2.352;2022-09-03T06:16:07;17.40;99.90
39255;DHT22;24957;51.386;-2.352;2022-09-03T06:18:33;17.50;99.90
39255;DHT22;24957;51.386;-2.352;2022-09-03T06:21:03;17.50;99.90
39255;DHT22;24957;51.386;-2.352;2022-09-03T06:23:29;17.60;99.90
39255;DHT22;24957;51.386;-2.352;2022-09-03T06:28:49;17.70;99.90
39255;DHT22;24957;51.386;-2.352;2022-09-03T06:31:19;17.70;99.90
39255;DHT22;24957;51.386;-2.352;2022-09-03T06:33:45;17.80;99.90
39255;DHT22;24957;51.386;-2.352;2022-09-03T06:36:14;18.00;99.90
39255;DHT22;24957;51.386;-2.352;2022-09-03T06:38:41;18.10;99.90
39255;DHT22;24957;51.386;-2.352;2022-09-03T06:41:07;18.20;99.90
39255;DHT22;24957;51.386;-2.352;2022-09-03T06:43:35;18.30;99.90
39255;DHT22;24957;51.386;-2.352;2022-09-03T06:46:05;18.30;99.90
39255;DHT22;24957;51.386;-2.352;2022-09-03T06:48:32;18.30;99.90
39255;DHT22;24957;51.386;-2.352;2022-09-03T06:50:58;18.30;99.90
39255;DHT22;24957;51.386;-2.352;2022-09-03T06:53:26;18.30;99.90
39255;DHT22;24957;51.386;-2.352;2022-09-03T06:56:02;18.30;99.90
39255;DHT22;24957;51.386;-2.352;2022-09-03T06:58:32;18.40;99.90
39255;DHT22;24957;51.386;-2.352;2022-09-03T07:01:05;18.50;99.90
39255;DHT22;24957;51.386;-2.352;2022-09-03T07:03:32;18.60;99.90
39255;DHT22;24957;51.386;-2.352;2022-09-03T07:06:01;18.80;99.90
39255;DHT22;24957;51.386;-2.352;2022-09-03T07:08:27;18.90;99.90
39255;DHT22;24957;51.386;-2.352;2022-09-03T07:10:52;18.80;99.90
39255;DHT22;24957;51.386;-2.352;2022-09-03T07:13:18;18.70;99.90
39255;DHT22;24957;51.386;-2.352;2022-09-03T07:15:45;18.80;99.90
39255;DHT22;24957;51.386;-2.352;2022-09-03T07:18:11;19.00;99.90
39255;DHT22;24957;51.386;-2.352;2022-09-03T07:20:36;19.10;99.90
39255;DHT22;24957;51.386;-2.352;2022-09-03T07:23:02;19.10;99.90
39255;DHT22;24957;51.386;-2.352;2022-09-03T07:25:27;19.30;99.90
39255;DHT22;24957;51.386;-2.352;2022-09-03T07:27:55;19.20;99.90
39255;DHT22;24957;51.386;-2.352;2022-09-03T07:30:21;19.20;99.90
39255;DHT22;24957;51.386;-2.352;2022-09-03T07:32:47;19.10;99.90
39255;DHT22;24957;51.386;-2.352;2022-09-03T07:35:15;19.00;99.90
39255;DHT22;24957;51.386;-2.352;2022-09-03T07:37:42;19.10;99.90
39255;DHT22;24957;51.386;-2.352;2022-09-03T07:40:08;19.10;99.90
39255;DHT22;24957;51.386;-2.352;2022-09-03T07:42:35;19.10;99.90
39255;DHT22;24957;51.386;-2.352;2022-09-03T07:45:04;19.00;99.90
39255;DHT22;24957;51.386;-2.352;2022-09-03T07:47:30;18.90;99.90
39255;DHT22;24957;51.386;-2.352;2022-09-03T07:49:56;18.80;99.90
39255;DHT22;24957;51.386;-2.352;2022-09-03T07:52:22;18.90;99.90
39255;DHT22;24957;51.386;-2.352;2022-09-03T07:54:47;18.90;99.90
39255;DHT22;24957;51.386;-2.352;2022-09-03T07:57:13;19.00;99.90
39255;DHT22;24957;51.386;-2.352;2022-09-03T07:59:38;19.20;99.90
39255;DHT22;24957;51.386;-2.352;2022-09-03T08:02:04;19.20;99.90
39255;DHT22;24957;51.386;-2.352;2022-09-03T08:04:30;19.30;99.90
39255;DHT22;24957;51.386;-2.352;2022-09-03T08:06:58;19.40;99.90
39255;DHT22;24957;51.386;-2.352;2022-09-03T08:09:24;19.40;99.90
39255;DHT22;24957;51.386;-2.352;2022-09-03T08:11:49;19.40;99.90
39255;DHT22;24957;51.386;-2.352;2022-09-03T08:14:15;19.60;99.90
39255;DHT22;24957;51.386;-2.352;2022-09-03T08:16:42;19.40;99.90
39255;DHT22;24957;51.386;-2.352;2022-09-03T08:19:08;19.30;99.90
39255;DHT22;24957;51.386;-2.352;2022-09-03T08:21:33;19.30;99.90
39255;DHT22;24957;51.386;-2.352;2022-09-03T08:23:59;19.30;99.90
39255;DHT22;24957;51.386;-2.352;2022-09-03T08:26:30;19.40;99.90
39255;DHT22;24957;51.386;-2.352;2022-09-03T08:28:56;19.50;99.90
39255;DHT22;24957;51.386;-2.352;2022-09-03T08:31:22;19.30;99.90
39255;DHT22;24957;51.386;-2.352;2022-09-03T08:33:51;19.40;99.90
39255;DHT22;24957;51.386;-2.352;2022-09-03T08:36:20;19.40;99.90
39255;DHT22;24957;51.386;-2.352;2022-09-03T08:38:49;19.40;99.90
39255;DHT22;24957;51.386;-2.352;2022-09-03T08:41:24;19.60;99.90
39255;DHT22;24957;51.386;-2.352;2022-09-03T08:46:24;20.10;99.90
39255;DHT22;24957;51.386;-2.352;2022-09-03T08:48:51;20.20;99.90
39255;DHT22;24957;51.386;-2.352;2022-09-03T08:51:17;20.30;99.90
39255;DHT22;24957;51.386;-2.352;2022-09-03T08:53:48;20.40;99.90
39255;DHT22;24957;51.386;-2.352;2022-09-03T08:56:26;20.30;99.90
39255;DHT22;24957;51.386;-2.352;2022-09-03T08:58:52;20.50;99.90
39255;DHT22;24957;51.386;-2.352;2022-09-03T09:06:45;20.80;99.90
39255;DHT22;24957;51.386;-2.352;2022-09-03T09:14:15;21.40;99.90
39255;DHT22;24957;51.386;-2.352;2022-09-03T09:19:16;21.40;99.90
39255;DHT22;24957;51.386;-2.352;2022-09-03T09:21:48;21.60;99.90
39255;DHT22;24957;51.386;-2.352;2022-09-03T09:24:17;21.60;99.90
39255;DHT22;24957;51.386;-2.352;2022-09-03T09:26:46;21.70;99.90
39255;DHT22;24957;51.386;-2.352;2022-09-03T09:29:12;21.90;99.90
39255;DHT22;24957;51.386;-2.352;2022-09-03T09:31:38;22.10;99.90
39255;DHT22;24957;51.386;-2.352;2022-09-03T09:34:06;22.30;99.90
39255;DHT22;24957;51.386;-2.352;2022-09-03T09:37:07;22.30;99.90
39255;DHT22;24957;51.386;-2.352;2022-09-03T09:39:27;22.20;99.90
39255;DHT22;24957;51.386;-2.352;2022-09-03T09:42:09;22.00;99.90
39255;DHT22;24957;51.386;-2.352;2022-09-03T09:44:40;21.90;99.90
39255;DHT22;24957;51.386;-2.352;2022-09-03T09:47:07;22.00;99.90
39255;DHT22;24957;51.386;-2.352;2022-09-03T09:49:56;22.10;99.90
39255;DHT22;24957;51.386;-2.352;2022-09-03T09:52:21;22.10;99.90
39255;DHT22;24957;51.386;-2.352;2022-09-03T09:54:50;22.10;99.90
39255;DHT22;24957;51.386;-2.352;2022-09-03T09:57:17;21.90;99.90
39255;DHT22;24957;51.386;-2.352;2022-09-03T09:59:45;21.70;99.90
39255;DHT22;24957;51.386;-2.352;2022-09-03T10:02:18;21.90;99.90
39255;DHT22;24957;51.386;-2.352;2022-09-03T10:04:44;22.10;99.90
39255;DHT22;24957;51.386;-2.352;2022-09-03T10:09:44;22.30;99.90
39255;DHT22;24957;51.386;-2.352;2022-09-03T10:12:16;22.40;99.90
39255;DHT22;24957;51.386;-2.352;2022-09-03T10:15:07;22.40;99.90
39255;DHT22;24957;51.386;-2.352;2022-09-03T10:20:21;22.40;99.90
39255;DHT22;24957;51.386;-2.352;2022-09-03T10:23:06;22.70;99.90
39255;DHT22;24957;51.386;-2.352;2022-09-03T10:25:36;23.00;99.90
39255;DHT22;24957;51.386;-2.352;2022-09-03T10:28:04;23.10;99.90
39255;DHT22;24957;51.386;-2.352;2022-09-03T10:30:30;23.10;99.90
39255;DHT22;24957;51.386;-2.352;2022-09-03T10:33:09;23.00;99.90
39255;DHT22;24957;51.386;-2.352;2022-09-03T10:35:42;22.90;99.90
39255;DHT22;24957;51.386;-2.352;2022-09-03T10:38:17;23.00;99.90
39255;DHT22;24957;51.386;-2.352;2022-09-03T10:41:06;22.90;99.90
39255;DHT22;24957;51.386;-2.352;2022-09-03T10:46:52;23.20;99.90
39255;DHT22;24957;51.386;-2.352;2022-09-03T10:49:13;23.30;99.90
39255;DHT22;24957;51.386;-2.352;2022-09-03T10:52:26;23.30;99.90
39255;DHT22;24957;51.386;-2.352;2022-09-03T10:57:18;23.50;99.90
39255;DHT22;24957;51.386;-2.352;2022-09-03T11:02:34;23.70;99.90
39255;DHT22;24957;51.386;-2.352;2022-09-03T11:05:22;23.80;99.90
39255;DHT22;24957;51.386;-2.352;2022-09-03T11:10:46;23.80;99.90
39255;DHT22;24957;51.386;-2.352;2022-09-03T11:13:25;24.00;99.90
39255;DHT22;24957;51.386;-2.352;2022-09-03T11:16:14;24.10;99.90
39255;DHT22;24957;51.386;-2.352;2022-09-03T11:21:07;23.70;98.60
39255;DHT22;24957;51.386;-2.352;2022-09-03T11:23:35;23.60;97.90
39255;DHT22;24957;51.386;-2.352;2022-09-03T11:26:05;23.70;97.70
39255;DHT22;24957;51.386;-2.352;2022-09-03T11:33:46;23.70;92.90
39255;DHT22;24957;51.386;-2.352;2022-09-03T11:36:26;23.80;93.10
39255;DHT22;24957;51.386;-2.352;2022-09-03T11:38:53;23.90;93.00
39255;DHT22;24957;51.386;-2.352;2022-09-03T11:43:47;23.60;91.40
39255;DHT22;24957;51.386;-2.352;2022-09-03T11:46:25;23.50;92.60
39255;DHT22;24957;51.386;-2.352;2022-09-03T11:48:52;23.50;92.40
39255;DHT22;24957;51.386;-2.352;2022-09-03T11:53:58;23.70;90.80
39255;DHT22;24957;51.386;-2.352;2022-09-03T11:56:24;23.50;91.60
39255;DHT22;24957;51.386;-2.352;2022-09-03T11:58:59;23.60;92.00
39255;DHT22;24957;51.386;-2.352;2022-09-03T12:01:26;23.80;91.60
39255;DHT22;24957;51.386;-2.352;2022-09-03T12:03:55;23.70;91.30
39255;DHT22;24957;51.386;-2.352;2022-09-03T12:18:50;23.70;90.80
39255;DHT22;24957;51.386;-2.352;2022-09-03T12:21:21;23.90;91.20
39255;DHT22;24957;51.386;-2.352;2022-09-03T12:23:49;24.10;90.20
39255;DHT22;24957;51.386;-2.352;2022-09-03T12:28:45;24.30;87.00
39255;DHT22;24957;51.386;-2.352;2022-09-03T12:31:20;24.50;87.00
39255;DHT22;24957;51.386;-2.352;2022-09-03T12:33:48;24.60;83.80
39255;DHT22;24957;51.386;-2.352;2022-09-03T12:36:15;24.30;78.30
39255;DHT22;24957;51.386;-2.352;2022-09-03T12:38:41;24.20;82.00
39255;DHT22;24957;51.386;-2.352;2022-09-03T12:41:26;24.10;77.30
39255;DHT22;24957;51.386;-2.352;2022-09-03T12:43:56;24.00;84.30
39255;DHT22;24957;51.386;-2.352;2022-09-03T12:46:23;24.00;85.70
39255;DHT22;24957;51.386;-2.352;2022-09-03T12:48:55;23.90;84.10
39255;DHT22;24957;51.386;-2.352;2022-09-03T12:51:21;24.00;80.10
39255;DHT22;24957;51.386;-2.352;2022-09-03T12:53:47;24.00;78.20
39255;DHT22;24957;51.386;-2.352;2022-09-03T12:56:13;23.90;79.00
39255;DHT22;24957;51.386;-2.352;2022-09-03T13:01:13;24.10;85.00
39255;DHT22;24957;51.386;-2.352;2022-09-03T13:03:46;24.30;78.90
39255;DHT22;24957;51.386;-2.352;2022-09-03T13:06:14;24.30;76.20
39255;DHT22;24957;51.386;-2.352;2022-09-03T13:08:48;24.10;78.80
39255;DHT22;24957;51.386;-2.352;2022-09-03T13:11:15;24.10;81.10
39255;DHT22;24957;51.386;-2.352;2022-09-03T13:13:47;24.30;77.60
39255;DHT22;24957;51.386;-2.352;2022-09-03T13:26:20;23.90;76.90
39255;DHT22;24957;51.386;-2.352;2022-09-03T13:34:15;24.00;76.10
39255;DHT22;24957;51.386;-2.352;2022-09-03T13:36:44;24.30;74.30
39255;DHT22;24957;51.386;-2.352;2022-09-03T13:39:19;24.40;72.00
39255;DHT22;24957;51.386;-2.352;2022-09-03T13:41:47;24.40;74.50
39255;DHT22;24957;51.386;-2.352;2022-09-03T13:44:17;24.40;71.40
39255;DHT22;24957;51.386;-2.352;2022-09-03T13:52:15;24.30;70.50
39255;DHT22;24957;51.386;-2.352;2022-09-03T13:54:48;24.50;68.70
39255;DHT22;24957;51.386;-2.352;2022-09-03T13:57:22;24.40;68.30
39255;DHT22;24957;51.386;-2.352;2022-09-03T14:02:49;24.10;69.30
39255;DHT22;24957;51.386;-2.352;2022-09-03T14:05:22;24.10;69.00
39255;DHT22;24957;51.386;-2.352;2022-09-03T14:15:33;23.90;69.20
39255;DHT22;24957;51.386;-2.352;2022-09-03T14:22:57;23.70;68.80
39255;DHT22;24957;51.386;-2.352;2022-09-03T14:25:25;23.60;69.50
39255;DHT22;24957;51.386;-2.352;2022-09-03T14:27:51;23.50;69.10
39255;DHT22;24957;51.386;-2.352;2022-09-03T14:33:16;23.10;70.60
39255;DHT22;24957;51.386;-2.352;2022-09-03T14:38:29;23.10;72.40
39255;DHT22;24957;51.386;-2.352;2022-09-03T14:46:10;23.20;72.00
39255;DHT22;24957;51.386;-2.352;2022-09-03T14:51:13;23.20;71.90
39255;DHT22;24957;51.386;-2.352;2022-09-03T15:01:37;23.30;72.40
39255;DHT22;24957;51.386;-2.352;2022-09-03T15:12:24;22.50;75.00
39255;DHT22;24957;51.386;-2.352;2022-09-03T15:14:55;22.60;75.60
39255;DHT22;24957;51.386;-2.352;2022-09-03T15:20:23;22.40;77.10
39255;DHT22;24957;51.386;-2.352;2022-09-03T15:30:35;22.30;70.70
39255;DHT22;24957;51.386;-2.352;2022-09-03T15:33:12;22.10;70.00
39255;DHT22;24957;51.386;-2.352;2022-09-03T15:36:05;22.00;70.80
39255;DHT22;24957;51.386;-2.352;2022-09-03T15:38:39;22.00;71.30
39255;DHT22;24957;51.386;-2.352;2022-09-03T15:41:17;22.10;71.60
39255;DHT22;24957;51.386;-2.352;2022-09-03T15:43:47;22.20;71.50
39255;DHT22;24957;51.386;-2.352;2022-09-03T15:54:14;22.00;67.60
39255;DHT22;24957;51.386;-2.352;2022-09-03T15:59:17;22.00;67.60
39255;DHT22;24957;51.386;-2.352;2022-09-03T16:01:46;21.70;68.80
39255;DHT22;24957;51.386;-2.352;2022-09-03T16:09:28;21.40;71.10
39255;DHT22;24957;51.386;-2.352;2022-09-03T16:14:47;21.30;73.00
39255;DHT22;24957;51.386;-2.352;2022-09-03T16:17:18;21.20;72.70
39255;DHT22;24957;51.386;-2.352;2022-09-03T16:19:47;21.10;74.10
39255;DHT22;24957;51.386;-2.352;2022-09-03T16:27:21;21.60;73.70
39255;DHT22;24957;51.386;-2.352;2022-09-03T16:30:07;21.50;74.00
39255;DHT22;24957;51.386;-2.352;2022-09-03T16:32:38;21.30;71.70
39255;DHT22;24957;51.386;-2.352;2022-09-03T16:35:21;21.40;71.70
39255;DHT22;24957;51.386;-2.352;2022-09-03T16:37:57;21.30;72.60
39255;DHT22;24957;51.386;-2.352;2022-09-03T16:58:55;21.40;77.10
39255;DHT22;24957;51.386;-2.352;2022-09-03T17:03:52;21.40;77.70
39255;DHT22;24957;51.386;-2.352;2022-09-03T17:09:01;21.30;78.90
39255;DHT22;24957;51.386;-2.352;2022-09-03T17:16:45;21.20;82.50
39255;DHT22;24957;51.386;-2.352;2022-09-03T17:27:06;21.40;76.40
39255;DHT22;24957;51.386;-2.352;2022-09-03T17:37:46;21.60;79.30
39255;DHT22;24957;51.386;-2.352;2022-09-03T17:42:50;21.40;77.30
39255;DHT22;24957;51.386;-2.352;2022-09-03T17:48:54;21.20;85.90
39255;DHT22;24957;51.386;-2.352;2022-09-03T17:51:00;21.20;88.90
39255;DHT22;24957;51.386;-2.352;2022-09-03T17:53:32;21.20;88.30
39255;DHT22;24957;51.386;-2.352;2022-09-03T17:56:03;21.20;81.40
39255;DHT22;24957;51.386;-2.352;2022-09-03T18:01:11;21.30;82.60
39255;DHT22;24957;51.386;-2.352;2022-09-03T18:03:48;21.10;84.60
39255;DHT22;24957;51.386;-2.352;2022-09-03T18:11:36;21.10;84.60
39255;DHT22;24957;51.386;-2.352;2022-09-03T18:16:40;21.00;84.20
39255;DHT22;24957;51.386;-2.352;2022-09-03T18:19:09;21.00;83.30
39255;DHT22;24957;51.386;-2.352;2022-09-03T18:21:43;21.10;87.30
39255;DHT22;24957;51.386;-2.352;2022-09-03T18:24:33;21.10;84.90
39255;DHT22;24957;51.386;-2.352;2022-09-03T18:27:28;20.90;84.60
39255;DHT22;24957;51.386;-2.352;2022-09-03T18:30:15;20.90;90.60
39255;DHT22;24957;51.386;-2.352;2022-09-03T18:32:59;20.90;90.10
39255;DHT22;24957;51.386;-2.352;2022-09-03T18:35:44;20.70;87.20
39255;DHT22;24957;51.386;-2.352;2022-09-03T18:38:30;20.60;88.70
39255;DHT22;24957;51.386;-2.352;2022-09-03T18:41:36;20.60;91.80
39255;DHT22;24957;51.386;-2.352;2022-09-03T18:47:45;20.70;90.50
39255;DHT22;24957;51.386;-2.352;2022-09-03T18:50:37;20.70;89.20
39255;DHT22;24957;51.386;-2.352;2022-09-03T18:53:27;20.70;89.30
39255;DHT22;24957;51.386;-2.352;2022-09-03T18:56:33;20.60;91.70
39255;DHT22;24957;51.386;-2.352;2022-09-03T18:59:38;20.40;90.60
39255;DHT22;24957;51.386;-2.352;2022-09-03T19:05:26;20.30;92.40
39255;DHT22;24957;51.386;-2.352;2022-09-03T19:08:23;20.40;91.50
39255;DHT22;24957;51.386;-2.352;2022-09-03T19:14:03;20.40;92.30
39255;DHT22;24957;51.386;-2.352;2022-09-03T19:16:58;20.30;92.20
39255;DHT22;24957;51.386;-2.352;2022-09-03T19:22:33;20.20;92.40
39255;DHT22;24957;51.386;-2.352;2022-09-03T19:25:18;20.10;93.20
39255;DHT22;24957;51.386;-2.352;2022-09-03T19:28:05;20.10;93.80
39255;DHT22;24957;51.386;-2.352;2022-09-03T19:34:28;20.20;94.70
39255;DHT22;24957;51.386;-2.352;2022-09-03T19:42:43;20.10;94.10
39255;DHT22;24957;51.386;-2.352;2022-09-03T19:45:53;20.10;95.90
39255;DHT22;24957;51.386;-2.352;2022-09-03T19:48:46;20.00;96.30
39255;DHT22;24957;51.386;-2.352;2022-09-03T19:54:25;20.00;97.10
39255;DHT22;24957;51.386;-2.352;2022-09-03T19:57:11;20.00;95.90
39255;DHT22;24957;51.386;-2.352;2022-09-03T19:59:56;20.00;95.20
39255;DHT22;24957;51.386;-2.352;2022-09-03T20:02:41;20.00;96.80
39255;DHT22;24957;51.386;-2.352;2022-09-03T20:05:28;20.10;95.40
39255;DHT22;24957;51.386;-2.352;2022-09-03T20:08:14;20.00;96.40
39255;DHT22;24957;51.386;-2.352;2022-09-03T20:10:58;20.00;95.10
39255;DHT22;24957;51.386;-2.352;2022-09-03T20:13:25;20.10;95.90
39255;DHT22;24957;51.386;-2.352;2022-09-03T20:16:08;20.00;95.20
39255;DHT22;24957;51.386;-2.352;2022-09-03T20:23:46;20.10;95.70
39255;DHT22;24957;51.386;-2.352;2022-09-03T20:26:25;20.00;96.80
39255;DHT22;24957;51.386;-2.352;2022-09-03T20:34:11;20.00;95.90
39255;DHT22;24957;51.386;-2.352;2022-09-03T20:39:11;20.00;97.80
39255;DHT22;24957;51.386;-2.352;2022-09-03T20:49:02;19.90;97.70
39255;DHT22;24957;51.386;-2.352;2022-09-03T20:54:29;19.80;99.10
39255;DHT22;24957;51.386;-2.352;2022-09-03T20:59:36;19.80;99.80
39255;DHT22;24957;51.386;-2.352;2022-09-03T21:09:53;19.80;99.00
39255;DHT22;24957;51.386;-2.352;2022-09-03T21:12:25;19.90;99.90
39255;DHT22;24957;51.386;-2.352;2022-09-03T21:22:56;19.90;99.90